createdAt,value
2023-12-13T00:01:35.199Z,98906.25
2023-12-13T00:04:04.877Z,98917.50
2023-12-13T00:06:32.684Z,98905.09
2023-12-13T00:09:00.413Z,98907.72
2023-12-13T00:11:28.182Z,98904.00
2023-12-13T00:13:55.992Z,98902.91
2023-12-13T00:16:24.526Z,98908.19
2023-12-13T00:18:52.591Z,98901.97
2023-12-13T00:21:24.808Z,98904.84
2023-12-13T00:23:52.792Z,98901.38
2023-12-13T00:26:21.250Z,98912.84
2023-12-13T00:28:49.079Z,98902.47
2023-12-13T00:31:16.945Z,98904.34
2023-12-13T00:33:44.774Z,98908.19
2023-12-13T00:36:12.654Z,98915.63
2023-12-13T00:38:41.803Z,98906.38
2023-12-13T00:41:09.610Z,98912.94
2023-12-13T00:43:37.453Z,98900.06
2023-12-13T00:46:06.577Z,98906.88
2023-12-13T00:48:34.882Z,98902.94
2023-12-13T00:51:02.755Z,98907.59
2023-12-13T00:53:30.621Z,98909.00
2023-12-13T00:55:59.753Z,98906.47
2023-12-13T00:58:27.519Z,98917.50
2023-12-13T01:00:55.591Z,98913.44
2023-12-13T01:03:23.375Z,98909.84
2023-12-13T01:05:51.126Z,98914.88
2023-12-13T01:08:18.834Z,98927.06
2023-12-13T01:10:46.720Z,98915.75
2023-12-13T01:13:15.809Z,98909.63
2023-12-13T01:15:43.564Z,98917.25
2023-12-13T01:18:11.427Z,98919.25
2023-12-13T01:20:39.255Z,98917.75
2023-12-13T01:23:07.022Z,98918.72
2023-12-13T01:25:34.835Z,98925.19
2023-12-13T01:28:02.711Z,98918.97
2023-12-13T01:30:31.918Z,98919.28
2023-12-13T01:32:59.752Z,98915.81
2023-12-13T01:35:27.806Z,98925.84
2023-12-13T01:37:55.713Z,98923.72
2023-12-13T01:40:23.574Z,98928.28
2023-12-13T01:42:51.350Z,98920.38
2023-12-13T01:45:19.085Z,98925.59
2023-12-13T01:47:48.265Z,98924.19
2023-12-13T01:50:16.121Z,98919.19
2023-12-13T01:52:44.354Z,98925.19
2023-12-13T01:55:12.780Z,98926.84
2023-12-13T01:57:42.073Z,98934.25
2023-12-13T02:00:10.592Z,98928.16
2023-12-13T02:02:38.502Z,98928.53
2023-12-13T02:05:09.833Z,98916.34
2023-12-13T02:07:38.962Z,98918.97
2023-12-13T02:10:08.183Z,98925.06
2023-12-13T02:12:36.929Z,98928.53
2023-12-13T02:15:05.984Z,98920.88
2023-12-13T02:17:34.296Z,98927.56
2023-12-13T02:20:02.249Z,98929.81
2023-12-13T02:22:31.428Z,98918.25
2023-12-13T02:25:01.087Z,98915.75
2023-12-13T02:27:30.984Z,98921.22
2023-12-13T02:29:59.189Z,98916.56
2023-12-13T02:32:26.980Z,98912.72
2023-12-13T02:34:55.497Z,98918.09
2023-12-13T02:37:23.469Z,98912.72
2023-12-13T02:39:52.877Z,98912.97
2023-12-13T02:42:20.666Z,98914.88
2023-12-13T02:44:48.476Z,98919.00
2023-12-13T02:47:16.241Z,98910.28
2023-12-13T02:49:44.008Z,98901.47
2023-12-13T02:52:11.823Z,98898.38
2023-12-13T02:54:39.608Z,98904.34
2023-12-13T02:57:08.721Z,98900.03
2023-12-13T02:59:36.457Z,98894.78
2023-12-13T03:02:04.539Z,98901.25
2023-12-13T03:04:32.534Z,98904.34
2023-12-13T03:07:01.083Z,98893.13
2023-12-13T03:09:28.815Z,98896.22
2023-12-13T03:11:56.598Z,98905.94
2023-12-13T03:14:26.884Z,98894.06
2023-12-13T03:16:54.692Z,98892.88
2023-12-13T03:19:22.643Z,98891.56
2023-12-13T03:21:50.544Z,98895.28
2023-12-13T03:24:18.371Z,98888.34
2023-12-13T03:26:46.183Z,98879.28
2023-12-13T03:29:13.977Z,98890.00
2023-12-13T03:31:43.103Z,98893.94
2023-12-13T03:34:11.056Z,98891.88
2023-12-13T03:36:38.930Z,98890.97
2023-12-13T03:39:08.458Z,98891.69
2023-12-13T03:41:36.546Z,98887.34
2023-12-13T03:44:04.479Z,98882.13
2023-12-13T03:46:32.437Z,98894.53
2023-12-13T03:49:01.799Z,98878.28
2023-12-13T03:51:29.499Z,98882.50
2023-12-13T03:53:57.267Z,98886.88
2023-12-13T03:56:25.036Z,98887.84
2023-12-13T03:58:52.767Z,98884.69
2023-12-13T04:01:20.594Z,98890.28
2023-12-13T04:03:48.469Z,98885.91
2023-12-13T04:06:17.740Z,98877.88
2023-12-13T04:08:45.488Z,98891.97
2023-12-13T04:11:13.241Z,98871.84
2023-12-13T04:13:40.984Z,98878.00
2023-12-13T04:16:09.861Z,98885.66
2023-12-13T04:18:38.605Z,98876.34
2023-12-13T04:21:07.110Z,98889.09
2023-12-13T04:23:36.286Z,98885.38
2023-12-13T04:26:04.210Z,98879.69
2023-12-13T04:28:31.932Z,98884.44
2023-12-13T04:30:59.741Z,98878.47
2023-12-13T04:33:27.796Z,98888.13
2023-12-13T04:35:58.455Z,98887.75
2023-12-13T04:38:26.267Z,98886.31
2023-12-13T04:40:55.465Z,98881.47
2023-12-13T04:43:23.465Z,98883.22
2023-12-13T04:45:52.304Z,98887.78
2023-12-13T04:48:20.214Z,98882.91
2023-12-13T04:50:48.066Z,98875.38
2023-12-13T04:53:15.811Z,98883.50
2023-12-13T04:55:43.583Z,98884.69
2023-12-13T04:58:12.773Z,98878.72
2023-12-13T05:00:40.578Z,98876.03
2023-12-13T05:03:08.871Z,98882.13
2023-12-13T05:05:36.800Z,98882.69
2023-12-13T05:08:05.463Z,98879.22
2023-12-13T05:10:33.274Z,98881.41
2023-12-13T05:13:01.045Z,98877.31
2023-12-13T05:15:30.119Z,98879.44
2023-12-13T05:17:57.892Z,98883.50
2023-12-13T05:20:25.702Z,98866.06
2023-12-13T05:22:53.599Z,98873.50
2023-12-13T05:25:21.500Z,98866.81
2023-12-13T05:27:49.314Z,98865.81
2023-12-13T05:30:19.148Z,98874.22
2023-12-13T05:32:48.356Z,98873.84
2023-12-13T05:35:16.322Z,98868.25
2023-12-13T05:37:44.251Z,98874.44
2023-12-13T05:40:13.921Z,98868.94
2023-12-13T05:42:42.174Z,98874.69
2023-12-13T05:45:10.703Z,98878.31
2023-12-13T05:47:38.745Z,98865.88
2023-12-13T05:50:09.350Z,98880.09
2023-12-13T05:52:37.932Z,98874.69
2023-12-13T05:55:06.479Z,98877.31
2023-12-13T05:57:34.505Z,98877.31
2023-12-13T06:00:03.030Z,98875.44
2023-12-13T06:02:38.467Z,98885.00
2023-12-13T06:05:24.214Z,98887.91
2023-12-13T06:07:52.485Z,98881.41
2023-12-13T06:10:20.731Z,98890.00
2023-12-13T06:12:52.015Z,98881.97
2023-12-13T06:15:20.003Z,98882.09
2023-12-13T06:17:47.896Z,98884.63
2023-12-13T06:20:15.850Z,98892.63
2023-12-13T06:22:45.137Z,98882.00
2023-12-13T06:25:13.017Z,98895.28
2023-12-13T06:27:40.828Z,98897.94
2023-12-13T06:30:11.621Z,98903.03
2023-12-13T06:32:40.371Z,98889.38
2023-12-13T06:35:08.953Z,98896.44
2023-12-13T06:37:36.932Z,98906.19
2023-12-13T06:40:07.605Z,98901.09
2023-12-13T06:42:35.379Z,98898.94
2023-12-13T06:45:04.026Z,98907.38
2023-12-13T06:47:32.996Z,98899.69
2023-12-13T06:50:01.200Z,98907.22
2023-12-13T06:52:29.366Z,98913.41
2023-12-13T06:54:57.525Z,98906.94
2023-12-13T06:57:26.779Z,98902.09
2023-12-13T06:59:54.560Z,98899.56
2023-12-13T07:02:22.289Z,98906.13
2023-12-13T07:04:50.229Z,98904.81
2023-12-13T07:07:18.112Z,98906.25
2023-12-13T07:09:46.596Z,98903.50
2023-12-13T07:12:14.367Z,98906.97
2023-12-13T07:14:43.497Z,98907.31
2023-12-13T07:17:11.266Z,98912.06
2023-12-13T07:19:39.612Z,98913.41
2023-12-13T07:22:07.419Z,98917.97
2023-12-13T07:24:35.227Z,98916.75
2023-12-13T07:27:03.688Z,98926.19
2023-12-13T07:29:33.611Z,98916.41
2023-12-13T07:32:02.807Z,98924.28
2023-12-13T07:34:30.681Z,98922.25
2023-12-13T07:36:58.634Z,98926.34
2023-12-13T07:39:27.292Z,98927.03
2023-12-13T07:41:56.033Z,98930.63
2023-12-13T07:44:23.863Z,98931.13
2023-12-13T07:46:51.738Z,98930.72
2023-12-13T07:49:21.151Z,98936.09
2023-12-13T07:51:48.990Z,98943.25
2023-12-13T07:54:17.613Z,98943.00
2023-12-13T07:56:46.922Z,98944.91
2023-12-13T07:59:14.734Z,98938.09
2023-12-13T08:01:42.534Z,98947.25
2023-12-13T08:04:10.434Z,98946.75
2023-12-13T08:06:39.560Z,98951.53
2023-12-13T08:09:10.341Z,98952.69
2023-12-13T08:11:38.241Z,98949.59
2023-12-13T08:14:06.141Z,98948.25
2023-12-13T08:16:33.997Z,98951.69
2023-12-13T08:19:01.993Z,98949.88
2023-12-13T08:21:29.846Z,98948.97
2023-12-13T08:23:59.030Z,98950.59
2023-12-13T08:26:27.190Z,98948.41
2023-12-13T08:29:02.420Z,98950.00
2023-12-13T08:31:34.792Z,98955.88
2023-12-13T08:34:02.752Z,98968.25
2023-12-13T08:36:30.654Z,98964.44
2023-12-13T08:38:59.729Z,98964.31
2023-12-13T08:41:29.058Z,98974.69
2023-12-13T08:43:57.262Z,98959.34
2023-12-13T08:46:25.067Z,98960.88
2023-12-13T08:48:52.977Z,98975.97
2023-12-13T08:51:20.924Z,98978.28
2023-12-13T08:53:49.991Z,98977.88
2023-12-13T08:56:19.196Z,98974.47
2023-12-13T08:58:46.958Z,98974.28
2023-12-13T09:01:15.907Z,98980.72
2023-12-13T09:03:44.478Z,98980.72
2023-12-13T09:06:12.254Z,98974.94
2023-12-13T09:08:40.051Z,98974.28
2023-12-13T09:11:07.935Z,98982.97
2023-12-13T09:13:37.038Z,98989.34
2023-12-13T09:16:05.735Z,98979.31
2023-12-13T09:18:33.684Z,98982.53
2023-12-13T09:21:01.603Z,98979.56
2023-12-13T09:23:30.557Z,98993.06
2023-12-13T09:26:00.315Z,98999.50
2023-12-13T09:28:30.251Z,99002.25
2023-12-13T09:30:59.821Z,99003.41
2023-12-13T09:33:27.746Z,99007.91
2023-12-13T09:35:55.613Z,99003.94
2023-12-13T09:38:23.344Z,98999.94
2023-12-13T09:40:52.389Z,99018.59
2023-12-13T09:43:21.151Z,99015.19
2023-12-13T09:45:52.484Z,99011.13
2023-12-13T09:48:23.871Z,99010.94
2023-12-13T09:50:54.004Z,99017.25
2023-12-13T09:53:22.903Z,99024.00
2023-12-13T09:55:51.662Z,99020.59
2023-12-13T09:58:19.692Z,99013.19
2023-12-13T10:00:47.514Z,99026.31
2023-12-13T10:03:16.116Z,99023.44
2023-12-13T10:05:46.399Z,99022.66
2023-12-13T10:08:14.229Z,99025.22
2023-12-13T10:10:42.142Z,99031.53
2023-12-13T10:13:11.202Z,99034.63
2023-12-13T10:15:39.823Z,99033.91
2023-12-13T10:18:07.687Z,99029.03
2023-12-13T10:20:37.139Z,99049.69
2023-12-13T10:23:07.131Z,99039.88
2023-12-13T10:25:38.497Z,99051.50
2023-12-13T10:28:06.613Z,99048.47
2023-12-13T10:30:35.163Z,99052.91
2023-12-13T10:33:02.942Z,99050.88
2023-12-13T10:35:30.738Z,99055.19
2023-12-13T10:38:00.222Z,99060.13
2023-12-13T10:40:29.577Z,99054.06
2023-12-13T10:42:57.514Z,99057.25
2023-12-13T10:45:25.785Z,99051.91
2023-12-13T10:47:59.431Z,99052.59
2023-12-13T10:50:28.861Z,99056.28
2023-12-13T10:52:56.960Z,99054.50
2023-12-13T10:55:25.984Z,99050.91
2023-12-13T10:57:55.619Z,99040.69
2023-12-13T11:00:26.981Z,99052.13
2023-12-13T11:03:00.186Z,99048.41
2023-12-13T11:05:28.043Z,99045.78
2023-12-13T11:07:55.991Z,99036.72
2023-12-13T11:10:24.280Z,99025.25
2023-12-13T11:12:53.299Z,99041.16
2023-12-13T11:15:22.413Z,99050.19
2023-12-13T11:17:55.193Z,99064.25
2023-12-13T11:20:23.752Z,99045.41
2023-12-13T11:22:51.650Z,99037.00
2023-12-13T11:25:19.755Z,99047.09
2023-12-13T11:27:54.417Z,99050.06
2023-12-13T11:30:24.036Z,99050.41
2023-12-13T11:32:52.818Z,99040.16
2023-12-13T11:35:22.188Z,99031.34
2023-12-13T11:37:52.189Z,99060.56
2023-12-13T11:40:20.816Z,99048.63
2023-12-13T11:42:49.135Z,99055.31
2023-12-13T11:45:20.441Z,99057.94
2023-12-13T11:47:52.032Z,99067.50
2023-12-13T11:50:22.443Z,99082.66
2023-12-13T11:52:50.400Z,99083.59
2023-12-13T11:55:20.447Z,99093.00
2023-12-13T11:57:50.798Z,99079.63
2023-12-13T12:00:19.882Z,99076.16
2023-12-13T12:02:49.103Z,99102.59
2023-12-13T12:05:17.299Z,99075.31
2023-12-13T12:07:45.199Z,99070.59
2023-12-13T12:10:13.097Z,99087.59
2023-12-13T12:12:40.821Z,99068.84
2023-12-13T12:15:09.251Z,99101.19
2023-12-13T12:17:37.759Z,99106.13
2023-12-13T12:20:08.657Z,99104.28
2023-12-13T12:22:37.849Z,99106.91
2023-12-13T12:25:06.674Z,99074.66
2023-12-13T12:27:36.897Z,99087.63
2023-12-13T12:30:05.929Z,99066.41
2023-12-13T12:32:33.751Z,99098.44
2023-12-13T12:35:04.016Z,99109.31
2023-12-13T12:37:33.669Z,99102.38
2023-12-13T12:40:01.672Z,99112.50
2023-12-13T12:42:29.618Z,99087.50
2023-12-13T12:44:57.340Z,99087.75
2023-12-13T12:47:25.165Z,99090.25
2023-12-13T12:49:54.106Z,99102.47
2023-12-13T12:52:22.109Z,99098.63
2023-12-13T12:54:51.556Z,99099.47
2023-12-13T12:57:19.789Z,99101.03
2023-12-13T12:59:51.599Z,99109.97
2023-12-13T13:02:20.297Z,99102.19
2023-12-13T13:04:48.564Z,99087.66
2023-12-13T13:07:16.800Z,99089.59
2023-12-13T13:09:44.553Z,99094.47
2023-12-13T13:12:13.763Z,99103.88
2023-12-13T13:14:41.520Z,99105.50
2023-12-13T13:17:09.374Z,99117.06
2023-12-13T13:19:37.222Z,99114.06
2023-12-13T13:22:08.510Z,99120.03
2023-12-13T13:24:43.085Z,99122.47
2023-12-13T13:27:17.857Z,99110.63
2023-12-13T13:29:51.476Z,99106.22
2023-12-13T13:32:19.678Z,99108.19
2023-12-13T13:34:47.481Z,99123.25
2023-12-13T13:37:15.772Z,99122.00
2023-12-13T13:39:43.524Z,99107.53
2023-12-13T13:42:12.145Z,99123.66
2023-12-13T13:44:41.872Z,99129.66
2023-12-13T13:47:11.216Z,99122.66
2023-12-13T13:49:39.471Z,99121.50
2023-12-13T13:52:07.790Z,99121.03
2023-12-13T13:54:36.607Z,99138.97
2023-12-13T13:57:05.552Z,99136.81
2023-12-13T13:59:33.493Z,99137.56
2023-12-13T14:02:01.361Z,99147.59
2023-12-13T14:04:30.647Z,99140.19
2023-12-13T14:06:58.340Z,99139.94
2023-12-13T14:09:26.176Z,99139.03
2023-12-13T14:11:55.804Z,99144.91
2023-12-13T14:14:24.995Z,99153.66
2023-12-13T14:16:52.788Z,99140.06
2023-12-13T14:19:20.901Z,99154.25
2023-12-13T14:21:50.170Z,99160.41
2023-12-13T14:24:17.945Z,99155.28
2023-12-13T14:26:45.739Z,99155.19
2023-12-13T14:29:14.203Z,99162.88
2023-12-13T14:31:42.087Z,99161.25
2023-12-13T14:34:09.948Z,99169.19
2023-12-13T14:36:37.813Z,99163.94
2023-12-13T14:39:07.208Z,99174.53
2023-12-13T14:41:35.007Z,99176.41
2023-12-13T14:44:02.960Z,99186.38
2023-12-13T14:46:30.796Z,99190.94
2023-12-13T14:48:58.618Z,99194.84
2023-12-13T14:51:26.425Z,99201.47
2023-12-13T14:53:57.616Z,99199.91
2023-12-13T14:56:27.407Z,99212.75
2023-12-13T14:58:55.266Z,99208.03
2023-12-13T15:01:23.983Z,99194.44
2023-12-13T15:03:52.344Z,99198.16
2023-12-13T15:06:20.712Z,99204.66
2023-12-13T15:08:50.394Z,99215.16
2023-12-13T15:11:18.146Z,99229.97
2023-12-13T15:13:47.375Z,99231.78
2023-12-13T15:16:15.159Z,99229.81
2023-12-13T15:18:43.027Z,99226.97
2023-12-13T15:21:10.846Z,99229.84
2023-12-13T15:23:38.635Z,99231.41
2023-12-13T15:26:07.096Z,99233.13
2023-12-13T15:28:37.171Z,99245.91
2023-12-13T15:31:08.590Z,99247.06
2023-12-13T15:33:36.757Z,99249.47
2023-12-13T15:36:05.156Z,99263.63
2023-12-13T15:38:33.707Z,99267.03
2023-12-13T15:41:01.559Z,99264.97
2023-12-13T15:43:29.749Z,99255.16
2023-12-13T15:45:58.685Z,99271.97
2023-12-13T15:48:27.973Z,99279.09
2023-12-13T15:50:55.653Z,99286.81
2023-12-13T15:53:23.465Z,99283.28
2023-12-13T15:55:51.327Z,99293.34
2023-12-13T15:58:19.152Z,99292.44
2023-12-13T16:00:49.002Z,99293.84
2023-12-13T16:03:17.237Z,99289.19
2023-12-13T16:05:46.427Z,99307.09
2023-12-13T16:08:14.525Z,99304.31
2023-12-13T16:10:45.169Z,99304.44
2023-12-13T16:13:13.033Z,99313.47
2023-12-13T16:15:40.771Z,99320.91
2023-12-13T16:18:08.700Z,99338.13
2023-12-13T16:20:36.536Z,99332.69
2023-12-13T16:23:05.643Z,99324.50
2023-12-13T16:25:33.433Z,99328.50
2023-12-13T16:28:03.109Z,99330.56
2023-12-13T16:30:32.681Z,99336.88
2023-12-13T16:33:00.509Z,99352.66
2023-12-13T16:35:28.278Z,99343.31
2023-12-13T16:37:56.221Z,99343.38
2023-12-13T16:40:25.375Z,99349.69
2023-12-13T16:42:54.301Z,99346.53
2023-12-13T16:45:22.147Z,99355.41
2023-12-13T16:47:49.926Z,99364.84
2023-12-13T16:50:17.819Z,99369.06
2023-12-13T16:52:45.652Z,99367.16
2023-12-13T16:55:13.464Z,99374.50
2023-12-13T16:57:42.597Z,99377.56
2023-12-13T17:00:12.334Z,99386.72
2023-12-13T17:02:44.259Z,99380.53
2023-12-13T17:05:14.121Z,99382.34
2023-12-13T17:07:43.604Z,99387.06
2023-12-13T17:10:11.832Z,99395.47
2023-12-13T17:12:39.757Z,99398.19
2023-12-13T17:15:09.629Z,99413.09
2023-12-13T17:17:37.623Z,99414.59
2023-12-13T17:20:06.566Z,99410.78
2023-12-13T17:22:34.789Z,99423.22
2023-12-13T17:25:02.751Z,99424.50
2023-12-13T17:27:30.773Z,99425.63
2023-12-13T17:29:58.551Z,99451.38
2023-12-13T17:32:28.480Z,99429.97
2023-12-13T17:34:56.331Z,99433.84
2023-12-13T17:37:24.110Z,99433.25
2023-12-13T17:39:52.660Z,99453.31
2023-12-13T17:42:20.436Z,99451.31
2023-12-13T17:44:49.168Z,99462.56
2023-12-13T17:47:17.657Z,99465.66
2023-12-13T17:49:47.092Z,99483.06
2023-12-13T17:52:15.338Z,99479.63
2023-12-13T17:54:43.171Z,99465.53
2023-12-13T17:57:13.812Z,99491.94
2023-12-13T17:59:42.740Z,99490.91
2023-12-13T18:02:12.432Z,99494.13
2023-12-13T18:04:42.535Z,99493.13
2023-12-13T18:07:12.205Z,99521.06
2023-12-13T18:09:40.003Z,99515.53
2023-12-13T18:12:09.113Z,99521.19
2023-12-13T18:14:37.008Z,99532.16
2023-12-13T18:17:05.285Z,99526.28
2023-12-13T18:19:33.150Z,99527.19
2023-12-13T18:22:00.968Z,99526.88
2023-12-13T18:24:30.045Z,99551.16
2023-12-13T18:26:58.269Z,99554.63
2023-12-13T18:29:26.160Z,99550.19
2023-12-13T18:31:55.137Z,99557.31
2023-12-13T18:34:23.212Z,99559.16
2023-12-13T18:36:51.037Z,99574.88
2023-12-13T18:39:19.010Z,99572.31
2023-12-13T18:41:50.197Z,99582.44
2023-12-13T18:44:18.032Z,99588.91
2023-12-13T18:46:46.089Z,99582.69
2023-12-13T18:49:13.914Z,99584.03
2023-12-13T18:51:41.754Z,99600.16
2023-12-13T18:54:09.499Z,99595.63
2023-12-13T18:56:37.813Z,99598.03
2023-12-13T18:59:07.020Z,99592.84
2023-12-13T19:01:36.010Z,99608.19
2023-12-13T19:04:04.222Z,99616.13
2023-12-13T19:06:32.069Z,99620.94
2023-12-13T19:08:59.912Z,99634.63
2023-12-13T19:11:27.702Z,99631.84
2023-12-13T19:13:55.545Z,99638.56
2023-12-13T19:16:29.735Z,99647.88
2023-12-13T19:18:57.987Z,99663.75
2023-12-13T19:21:25.837Z,99642.97
2023-12-13T19:23:53.583Z,99657.00
2023-12-13T19:26:21.414Z,99660.28
2023-12-13T19:28:49.277Z,99667.53
2023-12-13T19:31:17.017Z,99683.47
2023-12-13T19:33:46.277Z,99683.16
2023-12-13T19:36:14.254Z,99681.97
2023-12-13T19:38:41.993Z,99677.22
2023-12-13T19:41:09.844Z,99678.13
2023-12-13T19:43:40.397Z,99698.41
2023-12-13T19:46:09.294Z,99697.53
2023-12-13T19:48:37.245Z,99706.66
2023-12-13T19:51:06.687Z,99711.38
2023-12-13T19:53:34.970Z,99724.22
2023-12-13T19:56:02.867Z,99726.06
2023-12-13T19:58:30.993Z,99727.38
2023-12-13T20:00:59.922Z,99721.53
2023-12-13T20:03:27.816Z,99746.81
2023-12-13T20:05:55.685Z,99740.00
2023-12-13T20:08:24.905Z,99742.59
2023-12-13T20:10:52.773Z,99743.38
2023-12-13T20:13:20.572Z,99766.75
2023-12-13T20:15:48.396Z,99756.28
2023-12-13T20:18:16.324Z,99766.91
2023-12-13T20:20:44.113Z,99758.72
2023-12-13T20:23:11.945Z,99780.44
2023-12-13T20:25:41.585Z,99774.59
2023-12-13T20:28:09.418Z,99784.81
2023-12-13T20:30:37.286Z,99791.81
2023-12-13T20:33:06.072Z,99785.34
2023-12-13T20:35:33.966Z,99789.41
2023-12-13T20:38:02.111Z,99808.72
2023-12-13T20:40:30.695Z,99813.50
2023-12-13T20:42:59.865Z,99811.63
2023-12-13T20:45:27.990Z,99812.69
2023-12-13T20:47:55.844Z,99819.28
2023-12-13T20:50:24.178Z,99821.63
2023-12-13T20:52:52.100Z,99824.09
2023-12-13T20:55:19.879Z,99814.72
2023-12-13T20:57:47.670Z,99828.78
2023-12-13T21:00:17.336Z,99819.31
2023-12-13T21:02:45.029Z,99827.00
2023-12-13T21:05:13.184Z,99834.84
2023-12-13T21:07:41.250Z,99832.88
2023-12-13T21:10:10.204Z,99846.41
2023-12-13T21:12:37.938Z,99838.31
2023-12-13T21:15:08.131Z,99862.41
2023-12-13T21:17:39.129Z,99843.03
2023-12-13T21:20:08.123Z,99858.41
2023-12-13T21:22:36.290Z,99857.50
2023-12-13T21:25:04.601Z,99851.09
2023-12-13T21:27:32.876Z,99861.53
2023-12-13T21:30:04.989Z,99857.44
2023-12-13T21:32:34.329Z,99875.66
2023-12-13T21:35:04.360Z,99865.47
2023-12-13T21:37:32.547Z,99885.09
2023-12-13T21:40:00.478Z,99872.25
2023-12-13T21:42:28.184Z,99887.22
2023-12-13T21:44:55.922Z,99892.16
2023-12-13T21:47:26.381Z,99887.22
2023-12-13T21:49:54.229Z,99905.44
2023-12-13T21:52:23.334Z,99905.44
2023-12-13T21:54:51.052Z,99905.56
2023-12-13T21:57:18.802Z,99918.84
2023-12-13T21:59:46.540Z,99932.78
2023-12-13T22:02:14.402Z,99923.94
2023-12-13T22:04:42.208Z,99932.56
2023-12-13T22:07:10.214Z,99931.88
2023-12-13T22:09:39.326Z,99930.78
2023-12-13T22:12:08.469Z,99941.47
2023-12-13T22:14:36.264Z,99950.19
2023-12-13T22:17:04.987Z,99965.59
2023-12-13T22:19:48.734Z,99959.09
2023-12-13T22:22:18.186Z,99979.38
2023-12-13T22:24:49.044Z,99975.78
2023-12-13T22:27:16.861Z,99978.94
2023-12-13T22:29:44.741Z,99977.38
2023-12-13T22:32:12.940Z,99993.81
2023-12-13T22:34:40.819Z,99996.03
2023-12-13T22:37:08.584Z,100006.19
2023-12-13T22:39:36.323Z,99995.50
2023-12-13T22:42:06.080Z,100000.22
2023-12-13T22:44:33.806Z,100001.31
2023-12-13T22:47:01.613Z,100012.00
2023-12-13T22:49:29.461Z,100017.94
2023-12-13T22:52:19.278Z,100025.09
2023-12-13T22:54:44.955Z,100029.47
2023-12-13T22:57:14.073Z,100037.63
2023-12-13T22:59:41.910Z,100046.06
2023-12-13T23:02:09.682Z,100033.47
2023-12-13T23:04:37.534Z,100049.97
2023-12-13T23:07:05.619Z,100052.19
2023-12-13T23:09:33.415Z,100037.50
2023-12-13T23:12:01.157Z,100036.66
2023-12-13T23:14:30.263Z,100045.88
2023-12-13T23:17:00.354Z,100049.16
2023-12-13T23:19:28.428Z,100047.09
2023-12-13T23:21:56.170Z,100058.31
2023-12-13T23:24:23.938Z,100066.41
2023-12-13T23:26:51.873Z,100051.41
2023-12-13T23:29:19.643Z,100058.81
2023-12-13T23:31:48.827Z,100059.25
2023-12-13T23:34:16.593Z,100068.72
2023-12-13T23:36:44.332Z,100091.34
2023-12-13T23:39:12.078Z,100087.28
2023-12-13T23:41:39.824Z,100087.16
2023-12-13T23:44:07.664Z,100104.16
2023-12-13T23:46:35.501Z,100091.66
2023-12-13T23:49:04.661Z,100113.16
2023-12-13T23:51:32.482Z,100128.19
2023-12-13T23:54:00.288Z,100132.22
2023-12-13T23:56:28.059Z,100132.69
2023-12-13T23:58:55.834Z,100132.22
